createdAt,value
2023-05-02T00:00:28.040Z,10.31
2023-05-02T00:03:30.642Z,10.31
2023-05-02T00:06:35.429Z,10.31
2023-05-02T00:09:38.054Z,10.30
2023-05-02T00:12:40.520Z,10.30
2023-05-02T00:15:43.222Z,10.20
2023-05-02T00:18:45.719Z,10.11
2023-05-02T00:21:49.999Z,10.17
2023-05-02T00:24:57.313Z,10.15
2023-05-02T00:27:59.879Z,10.24
2023-05-02T00:31:02.607Z,10.30
2023-05-02T00:34:05.190Z,10.41
2023-05-02T00:37:09.061Z,10.52
2023-05-02T00:40:12.651Z,10.50
2023-05-02T00:43:15.117Z,10.33
2023-05-02T00:46:17.983Z,10.14
2023-05-02T00:49:20.911Z,10.03
2023-05-02T00:52:24.753Z,10.05
2023-05-02T00:55:27.284Z,10.02
2023-05-02T00:58:30.704Z,10.06
2023-05-02T01:01:38.198Z,10.13
2023-05-02T01:04:45.729Z,10.05
2023-05-02T01:07:59.722Z,10.03
2023-05-02T01:11:07.828Z,10.02
2023-05-02T01:14:12.547Z,10.06
2023-05-02T01:17:16.635Z,10.05
2023-05-02T01:20:21.605Z,10.09
2023-05-02T01:23:31.454Z,10.09
2023-05-02T01:26:37.536Z,10.06
2023-05-02T01:29:42.327Z,9.96
2023-05-02T01:32:47.270Z,9.91
2023-05-02T01:35:51.736Z,9.91
2023-05-02T01:38:56.326Z,9.88
2023-05-02T01:41:59.153Z,9.83
2023-05-02T01:45:04.269Z,9.73
2023-05-02T01:48:07.851Z,9.66
2023-05-02T01:51:10.676Z,9.59
2023-05-02T01:54:14.335Z,9.56
2023-05-02T01:57:16.711Z,9.57
2023-05-02T02:00:21.460Z,9.55
2023-05-02T02:03:24.627Z,9.54
2023-05-02T02:06:27.788Z,9.54
2023-05-02T02:09:30.602Z,9.49
2023-05-02T02:12:37.038Z,9.47
2023-05-02T02:15:41.209Z,9.48
2023-05-02T02:18:45.802Z,9.43
2023-05-02T02:21:49.225Z,9.50
2023-05-02T02:24:54.526Z,9.41
2023-05-02T02:27:57.668Z,9.37
2023-05-02T02:31:02.406Z,9.29
2023-05-02T02:34:04.956Z,9.23
2023-05-02T02:37:11.865Z,9.26
2023-05-02T02:40:25.034Z,9.26
2023-05-02T02:43:34.058Z,9.28
2023-05-02T02:46:50.066Z,9.25
2023-05-02T02:49:59.785Z,9.23
2023-05-02T02:53:04.281Z,9.16
2023-05-02T02:56:08.011Z,9.15
2023-05-02T02:59:15.280Z,9.17
2023-05-02T03:02:19.994Z,9.26
2023-05-02T03:05:23.646Z,9.39
2023-05-02T03:08:26.076Z,9.49
2023-05-02T03:11:29.587Z,9.56
2023-05-02T03:14:32.055Z,9.66
2023-05-02T03:17:36.024Z,9.80
2023-05-02T03:20:38.906Z,9.90
2023-05-02T03:23:41.411Z,9.97
2023-05-02T03:26:43.905Z,9.97
2023-05-02T03:29:46.413Z,10.06
2023-05-02T03:32:50.526Z,10.15
2023-05-02T03:35:53.143Z,10.21
2023-05-02T03:38:55.954Z,10.28
2023-05-02T03:41:59.508Z,10.31
2023-05-02T03:45:02.068Z,10.35
2023-05-02T03:48:06.318Z,10.31
2023-05-02T03:51:09.919Z,10.37
2023-05-02T03:54:12.396Z,10.47
2023-05-02T03:57:15.062Z,10.57
2023-05-02T04:00:17.829Z,10.70
2023-05-02T04:03:22.573Z,10.80
2023-05-02T04:06:25.275Z,10.91
2023-05-02T04:09:27.781Z,11.00
2023-05-02T04:12:30.760Z,11.05
2023-05-02T04:15:33.414Z,11.13
2023-05-02T04:18:37.306Z,11.22
2023-05-02T04:21:39.823Z,11.14
2023-05-02T04:24:42.470Z,11.14
2023-05-02T04:27:45.347Z,11.27
2023-05-02T04:30:48.079Z,11.46
2023-05-02T04:33:52.063Z,11.57
2023-05-02T04:36:54.636Z,11.60
2023-05-02T04:39:57.331Z,11.67
2023-05-02T04:42:59.917Z,11.59
2023-05-02T04:46:02.474Z,11.45
2023-05-02T04:49:06.473Z,11.30
2023-05-02T04:52:08.999Z,11.27
2023-05-02T04:55:11.522Z,11.40
2023-05-02T04:58:14.099Z,11.58
2023-05-02T05:01:17.666Z,11.69
2023-05-02T05:04:21.647Z,11.81
2023-05-02T05:07:25.699Z,11.82
2023-05-02T05:10:28.310Z,11.87
2023-05-02T05:13:30.817Z,11.95
2023-05-02T05:16:33.443Z,12.02
2023-05-02T05:19:37.295Z,12.24
2023-05-02T05:22:41.419Z,12.57
2023-05-02T05:25:45.750Z,12.88
2023-05-02T05:28:48.517Z,13.11
2023-05-02T05:31:51.115Z,13.24
2023-05-02T05:34:55.007Z,13.43
2023-05-02T05:37:57.611Z,13.64
2023-05-02T05:41:00.143Z,13.73
2023-05-02T05:44:02.653Z,13.92
2023-05-02T05:47:05.307Z,14.10
2023-05-02T05:50:10.885Z,14.22
2023-05-02T05:53:13.850Z,14.45
2023-05-02T05:56:16.413Z,14.44
2023-05-02T05:59:19.031Z,14.39
2023-05-02T06:02:21.666Z,14.55
2023-05-02T06:05:25.569Z,14.71
2023-05-02T06:08:28.363Z,14.70
2023-05-02T06:11:31.092Z,14.86
2023-05-02T06:14:33.630Z,15.18
2023-05-02T06:17:36.174Z,15.32
2023-05-02T06:20:40.071Z,15.11
2023-05-02T06:23:42.727Z,14.91
2023-05-02T06:26:46.200Z,14.98
2023-05-02T06:29:48.674Z,15.10
2023-05-02T06:32:51.525Z,15.12
2023-05-02T06:35:55.607Z,14.58
2023-05-02T06:38:58.115Z,14.91
2023-05-02T06:42:01.427Z,15.09
2023-05-02T06:45:04.305Z,15.86
2023-05-02T06:48:07.480Z,15.99
2023-05-02T06:51:11.551Z,15.60
2023-05-02T06:54:14.842Z,15.51
2023-05-02T06:57:17.488Z,15.74
2023-05-02T07:00:20.845Z,16.21
2023-05-02T07:03:23.614Z,15.54
2023-05-02T07:06:27.883Z,15.75
2023-05-02T07:09:30.846Z,15.23
2023-05-02T07:12:33.656Z,15.28
2023-05-02T07:15:36.165Z,15.00
2023-05-02T07:18:38.731Z,14.82
2023-05-02T07:21:42.773Z,15.65
2023-05-02T07:24:45.562Z,15.69
2023-05-02T07:27:48.145Z,16.01
2023-05-02T07:30:50.622Z,15.84
2023-05-02T07:33:53.174Z,16.01
2023-05-02T07:36:57.374Z,16.15
2023-05-02T07:40:00.349Z,16.44
2023-05-02T07:43:03.499Z,16.38
2023-05-02T07:46:06.808Z,16.20
2023-05-02T07:49:09.428Z,16.68
2023-05-02T07:52:13.323Z,15.98
2023-05-02T07:55:16.161Z,16.81
2023-05-02T07:58:18.679Z,17.09
2023-05-02T08:01:21.300Z,17.28
2023-05-02T08:04:24.014Z,16.45
2023-05-02T08:07:28.092Z,16.59
2023-05-02T08:10:30.861Z,16.78
2023-05-02T08:13:33.372Z,15.65
2023-05-02T08:16:36.207Z,16.04
2023-05-02T08:19:38.910Z,16.33
2023-05-02T08:22:42.780Z,16.61
2023-05-02T08:25:45.415Z,16.77
2023-05-02T08:28:47.958Z,16.72
2023-05-02T08:31:50.589Z,17.25
2023-05-02T08:34:56.168Z,17.73
2023-05-02T08:37:59.992Z,18.81
2023-05-02T08:41:02.828Z,19.40
2023-05-02T08:44:07.523Z,19.65
2023-05-02T08:47:12.212Z,19.53
2023-05-02T08:50:16.965Z,19.55
2023-05-02T08:53:21.198Z,19.50
2023-05-02T08:56:25.199Z,19.84
2023-05-02T08:59:27.900Z,19.24
2023-05-02T09:02:43.365Z,19.72
2023-05-02T09:05:48.177Z,19.46
2023-05-02T09:08:53.331Z,19.66
2023-05-02T09:11:55.950Z,19.76
2023-05-02T09:15:19.207Z,20.66
2023-05-02T09:18:23.683Z,20.56
2023-05-02T09:21:27.465Z,20.48
2023-05-02T09:24:31.353Z,21.39
2023-05-02T09:27:55.832Z,21.66
2023-05-02T09:31:08.183Z,20.59
2023-05-02T09:34:11.782Z,20.94
2023-05-02T09:37:37.304Z,20.35
2023-05-02T09:40:54.511Z,20.86
2023-05-02T09:43:58.084Z,19.49
2023-05-02T09:47:02.171Z,20.27
2023-05-02T09:50:06.330Z,21.65
2023-05-02T09:53:11.234Z,20.99
2023-05-02T09:56:15.269Z,21.21
2023-05-02T09:59:18.372Z,21.11
2023-05-02T10:02:21.864Z,21.16
2023-05-02T10:05:24.943Z,21.73
2023-05-02T10:08:28.586Z,20.43
2023-05-02T10:11:32.892Z,20.03
2023-05-02T10:14:41.264Z,19.13
2023-05-02T10:17:50.521Z,18.67
2023-05-02T10:20:57.860Z,18.78
2023-05-02T10:24:03.413Z,18.18
2023-05-02T10:27:07.625Z,18.73
2023-05-02T10:30:10.726Z,19.09
2023-05-02T10:33:14.871Z,19.77
2023-05-02T10:36:22.417Z,20.00
2023-05-02T10:39:25.200Z,20.14
2023-05-02T10:42:29.480Z,20.33
2023-05-02T10:45:33.173Z,20.81
2023-05-02T10:48:35.764Z,21.69
2023-05-02T10:51:39.512Z,22.82
2023-05-02T10:54:42.128Z,22.80
2023-05-02T10:58:23.467Z,22.63
2023-05-02T11:01:42.078Z,21.92
2023-05-02T11:05:01.933Z,21.46
2023-05-02T11:08:32.959Z,21.35
2023-05-02T11:11:43.166Z,21.44
2023-05-02T11:14:49.625Z,22.39
2023-05-02T11:18:01.892Z,22.79
2023-05-02T11:21:29.584Z,24.35
2023-05-02T11:24:39.449Z,24.60
2023-05-02T11:27:43.914Z,22.40
2023-05-02T11:30:48.726Z,22.21
2023-05-02T11:33:57.526Z,22.48
2023-05-02T11:37:00.267Z,21.78
2023-05-02T11:40:11.929Z,22.66
2023-05-02T11:43:15.700Z,22.91
2023-05-02T11:46:21.059Z,22.87
2023-05-02T11:49:23.921Z,23.79
2023-05-02T11:52:26.689Z,24.41
2023-05-02T11:55:29.416Z,23.00
2023-05-02T11:58:33.867Z,22.41
2023-05-02T12:01:38.192Z,22.25
2023-05-02T12:04:43.745Z,20.94
2023-05-02T12:07:49.168Z,21.29
2023-05-02T12:10:53.442Z,20.35
2023-05-02T12:13:56.056Z,20.71
2023-05-02T12:17:00.814Z,21.74
2023-05-02T12:20:05.211Z,22.18
2023-05-02T12:23:08.000Z,22.74
2023-05-02T12:26:21.320Z,23.54
2023-05-02T12:29:23.855Z,23.43
2023-05-02T12:32:32.370Z,23.60
2023-05-02T12:35:36.098Z,21.29
2023-05-02T12:38:38.699Z,22.14
2023-05-02T12:41:43.770Z,21.01
2023-05-02T12:44:48.222Z,20.90
2023-05-02T12:47:52.200Z,21.63
2023-05-02T12:50:56.039Z,21.48
2023-05-02T12:53:58.670Z,22.89
2023-05-02T12:57:08.778Z,23.36
2023-05-02T13:00:13.143Z,23.62
2023-05-02T13:03:17.050Z,25.63
2023-05-02T13:06:19.848Z,28.62
2023-05-02T13:09:22.375Z,27.97
2023-05-02T13:12:24.910Z,26.63
2023-05-02T13:15:27.521Z,27.27
2023-05-02T13:18:31.578Z,25.80
2023-05-02T13:21:34.212Z,27.17
2023-05-02T13:24:36.741Z,26.77
2023-05-02T13:27:41.034Z,24.27
2023-05-02T13:30:43.650Z,24.62
2023-05-02T13:33:47.639Z,24.57
2023-05-02T13:36:50.208Z,29.46
2023-05-02T13:39:52.794Z,26.09
2023-05-02T13:42:55.316Z,24.24
2023-05-02T13:45:57.986Z,22.85
2023-05-02T13:49:02.454Z,26.24
2023-05-02T13:52:05.215Z,31.16
2023-05-02T13:55:08.412Z,33.77
2023-05-02T13:58:11.302Z,31.11
2023-05-02T14:01:13.959Z,25.97
2023-05-02T14:04:18.107Z,27.06
2023-05-02T14:07:20.791Z,30.30
2023-05-02T14:10:23.378Z,29.57
2023-05-02T14:13:26.268Z,31.52
2023-05-02T14:16:30.706Z,34.99
2023-05-02T14:19:34.793Z,29.19
2023-05-02T14:22:37.393Z,24.88
2023-05-02T14:25:40.098Z,25.09
2023-05-02T14:28:42.711Z,31.15
2023-05-02T14:31:46.064Z,35.08
2023-05-02T14:34:50.062Z,33.69
2023-05-02T14:37:52.542Z,36.15
2023-05-02T14:40:55.371Z,33.17
2023-05-02T14:43:58.083Z,29.11
2023-05-02T14:47:00.891Z,31.19
2023-05-02T14:50:06.307Z,31.77
2023-05-02T14:53:09.058Z,29.84
2023-05-02T14:56:17.136Z,34.00
2023-05-02T14:59:20.090Z,33.49
2023-05-02T15:02:22.787Z,33.75
2023-05-02T15:05:26.678Z,34.48
2023-05-02T15:08:29.312Z,34.23
2023-05-02T15:11:31.893Z,28.35
2023-05-02T15:14:34.494Z,33.80
2023-05-02T15:17:36.999Z,34.58
2023-05-02T15:20:41.051Z,35.36
2023-05-02T15:23:43.975Z,36.52
2023-05-02T15:26:46.673Z,38.40
2023-05-02T15:29:49.257Z,36.18
2023-05-02T15:32:51.853Z,33.77
2023-05-02T15:35:57.680Z,37.89
2023-05-02T15:39:00.212Z,37.35
2023-05-02T15:42:03.757Z,33.83
2023-05-02T15:45:07.491Z,34.71
2023-05-02T15:48:10.306Z,36.18
2023-05-02T15:51:14.058Z,36.49
2023-05-02T15:54:20.161Z,33.21
2023-05-02T15:57:23.045Z,35.41
2023-05-02T16:00:25.821Z,30.68
2023-05-02T16:03:28.587Z,28.69
2023-05-02T16:06:33.380Z,32.56
2023-05-02T16:09:36.304Z,32.40
2023-05-02T16:12:38.982Z,34.45
2023-05-02T16:15:41.534Z,34.39
2023-05-02T16:18:44.426Z,31.07
2023-05-02T16:21:48.357Z,33.71
2023-05-02T16:24:50.909Z,34.56
2023-05-02T16:27:53.610Z,33.88
2023-05-02T16:30:56.406Z,36.26
2023-05-02T16:33:59.090Z,36.62
2023-05-02T16:37:03.850Z,35.56
2023-05-02T16:40:08.088Z,34.91
2023-05-02T16:43:10.829Z,35.16
2023-05-02T16:46:13.465Z,35.73
2023-05-02T16:49:16.063Z,36.37
2023-05-02T16:52:19.955Z,33.48
2023-05-02T16:55:22.878Z,34.37
2023-05-02T16:58:25.648Z,28.48
2023-05-02T17:01:28.301Z,23.93
2023-05-02T17:04:30.839Z,23.59
2023-05-02T17:07:34.737Z,21.71
2023-05-02T17:10:37.307Z,21.31
2023-05-02T17:13:40.178Z,21.13
2023-05-02T17:16:42.701Z,21.01
2023-05-02T17:19:45.622Z,20.70
2023-05-02T17:22:49.416Z,20.43
2023-05-02T17:25:52.243Z,20.13
2023-05-02T17:28:54.698Z,19.78
2023-05-02T17:32:00.421Z,19.89
2023-05-02T17:35:03.085Z,20.00
2023-05-02T17:38:07.079Z,19.99
2023-05-02T17:41:09.656Z,19.99
2023-05-02T17:44:12.171Z,20.06
2023-05-02T17:47:14.791Z,19.91
2023-05-02T17:50:17.374Z,19.87
2023-05-02T17:53:21.305Z,19.75
2023-05-02T17:56:23.835Z,19.06
2023-05-02T17:59:27.345Z,18.78
2023-05-02T18:02:30.121Z,18.54
2023-05-02T18:05:38.326Z,18.36
2023-05-02T18:08:42.263Z,18.14
2023-05-02T18:11:44.894Z,18.04
2023-05-02T18:14:48.245Z,17.81
2023-05-02T18:17:50.649Z,17.59
2023-05-02T18:20:53.293Z,17.50
2023-05-02T18:23:57.581Z,17.25
2023-05-02T18:27:00.140Z,17.18
2023-05-02T18:30:03.605Z,17.08
2023-05-02T18:33:06.729Z,16.97
2023-05-02T18:36:09.595Z,16.78
2023-05-02T18:39:14.298Z,16.67
2023-05-02T18:42:16.866Z,16.58
2023-05-02T18:45:19.673Z,16.43
2023-05-02T18:48:22.549Z,16.23
2023-05-02T18:51:25.196Z,16.12
2023-05-02T18:54:29.264Z,16.05
2023-05-02T18:57:33.561Z,15.86
2023-05-02T19:00:37.209Z,15.85
2023-05-02T19:03:39.999Z,15.67
2023-05-02T19:06:42.777Z,15.80
2023-05-02T19:09:46.730Z,15.85
2023-05-02T19:12:49.298Z,15.99
2023-05-02T19:15:51.994Z,16.03
2023-05-02T19:18:55.846Z,16.14
2023-05-02T19:21:58.652Z,16.15
2023-05-02T19:25:06.587Z,16.10
2023-05-02T19:28:09.170Z,16.19
2023-05-02T19:31:12.192Z,16.24
2023-05-02T19:34:14.715Z,16.22
2023-05-02T19:37:17.255Z,16.16
2023-05-02T19:40:21.154Z,16.14
2023-05-02T19:43:26.315Z,16.05
2023-05-02T19:46:30.142Z,15.98
2023-05-02T19:49:32.853Z,15.94
2023-05-02T19:52:37.361Z,15.70
2023-05-02T19:55:41.509Z,15.57
2023-05-02T19:58:44.410Z,15.44
2023-05-02T20:01:47.425Z,15.10
2023-05-02T20:04:50.067Z,14.83
2023-05-02T20:07:52.832Z,14.64
2023-05-02T20:10:56.985Z,14.65
2023-05-02T20:13:59.796Z,14.54
2023-05-02T20:17:02.459Z,14.58
2023-05-02T20:20:08.107Z,14.57
2023-05-02T20:23:10.704Z,14.62
2023-05-02T20:26:16.344Z,14.80
2023-05-02T20:29:18.963Z,14.79
2023-05-02T20:32:21.625Z,14.75
2023-05-02T20:35:24.515Z,14.81
2023-05-02T20:38:27.039Z,14.90
2023-05-02T20:41:32.152Z,14.78
2023-05-02T20:44:34.856Z,14.55
2023-05-02T20:47:37.515Z,14.39
2023-05-02T20:50:40.102Z,14.36
2023-05-02T20:53:42.674Z,14.40
2023-05-02T20:56:46.596Z,14.40
2023-05-02T20:59:49.176Z,14.32
2023-05-02T21:02:52.197Z,14.35
2023-05-02T21:05:55.587Z,14.31
2023-05-02T21:08:58.447Z,14.29
2023-05-02T21:12:02.570Z,14.09
2023-05-02T21:15:05.989Z,13.80
2023-05-02T21:18:08.670Z,13.58
2023-05-02T21:21:11.186Z,13.43
2023-05-02T21:24:13.816Z,13.30
2023-05-02T21:27:17.688Z,13.24
2023-05-02T21:30:20.442Z,13.14
2023-05-02T21:33:22.976Z,13.05
2023-05-02T21:36:25.858Z,12.99
2023-05-02T21:39:28.396Z,12.90
2023-05-02T21:42:32.346Z,12.90
2023-05-02T21:45:34.832Z,12.85
2023-05-02T21:48:37.365Z,12.82
2023-05-02T21:51:40.642Z,12.78
2023-05-02T21:54:46.856Z,12.83
2023-05-02T21:57:50.832Z,12.88
2023-05-02T22:00:53.372Z,12.73
2023-05-02T22:03:56.529Z,12.58
2023-05-02T22:06:59.516Z,12.61
2023-05-02T22:10:02.401Z,12.49
2023-05-02T22:13:09.344Z,12.46
2023-05-02T22:16:12.110Z,12.48
2023-05-02T22:19:15.032Z,12.47
2023-05-02T22:22:17.588Z,12.47
2023-05-02T22:25:20.171Z,12.55
2023-05-02T22:28:24.008Z,12.35
2023-05-02T22:31:27.144Z,12.19
2023-05-02T22:34:29.696Z,12.19
2023-05-02T22:37:32.225Z,12.17
2023-05-02T22:40:34.804Z,12.13
2023-05-02T22:43:38.620Z,12.11
2023-05-02T22:46:41.305Z,11.98
2023-05-02T22:49:44.539Z,12.02
2023-05-02T22:52:49.149Z,11.85
2023-05-02T22:55:52.263Z,11.80
2023-05-02T22:58:56.204Z,11.85
2023-05-02T23:02:00.564Z,11.80
2023-05-02T23:05:04.087Z,11.68
2023-05-02T23:08:06.551Z,11.67
2023-05-02T23:11:09.029Z,11.73
2023-05-02T23:14:12.906Z,11.72
2023-05-02T23:17:15.469Z,11.70
2023-05-02T23:20:20.333Z,11.80
2023-05-02T23:23:22.815Z,11.72
2023-05-02T23:26:25.560Z,11.66
2023-05-02T23:29:29.429Z,11.55
2023-05-02T23:32:32.201Z,11.55
2023-05-02T23:35:34.969Z,11.48
2023-05-02T23:38:37.561Z,11.54
2023-05-02T23:41:40.288Z,11.59
2023-05-02T23:44:44.590Z,11.52
2023-05-02T23:47:47.460Z,11.48
2023-05-02T23:50:50.066Z,11.45
2023-05-02T23:53:52.553Z,11.45
2023-05-02T23:56:56.023Z,11.37
2023-05-02T23:59:59.938Z,11.40
